Current Weather

Orange County

Montgomery, New York (KMGJ)

Report from: Tuesday, July 16, 2024 10:54 AM EDT
Current time: Tuesday, July 16, 2024 11:28 AM EDT

Nearby weather – Weather history – Daily summaries
Weather forecast

Temperature28.3°C (82.9°F)
Heat index29.6°C (85.2°F)
Dew point18.3°C (64.9°F)
Winds 7 kts (3.6 m/s, 8.1 mph) South (170°)
Visibility10 mi. (16.1 km)
Clouds Sky clear
Altimeter29.83 in.Hg (1010 mB)
Relative humidity55 %
Density altitude1,929 ft. (588 m)
Sea-level pressure101.0 kPa (1010 mB, 29.82 in.Hg)
Remarks Fully automated report
Automated weather observing station with precipitation discriminator
Pressure falling more quickly
Flight conditions Visual Meteorological Conditions
Raw dataKMGJ 161454Z AUTO 17007KT 10SM CLR 28/18 A2983 RMK AO2 SLP099 T02830183 58006
An error has occurred. This application may no longer respond until reloaded. Reload 🗙